createdAt,value
2023-05-14T00:01:55.592Z,8.80
2023-05-14T00:04:28.573Z,8.07
2023-05-14T00:07:02.911Z,11.65
2023-05-14T00:09:36.073Z,7.47
2023-05-14T00:12:09.660Z,7.32
2023-05-14T00:14:42.464Z,7.60
2023-05-14T00:17:15.459Z,7.00
2023-05-14T00:19:48.390Z,8.55
2023-05-14T00:22:22.585Z,6.97
2023-05-14T00:24:55.422Z,7.28
2023-05-14T00:27:28.219Z,9.43
2023-05-14T00:30:01.320Z,7.00
2023-05-14T00:32:34.217Z,7.78
2023-05-14T00:35:07.855Z,7.10
2023-05-14T00:37:42.026Z,7.00
2023-05-14T00:40:15.710Z,7.43
2023-05-14T00:42:48.614Z,8.25
2023-05-14T00:45:21.658Z,8.52
2023-05-14T00:47:55.242Z,7.38
2023-05-14T00:50:28.274Z,7.78
2023-05-14T00:53:02.558Z,7.90
2023-05-14T00:55:35.485Z,9.30
2023-05-14T00:58:10.684Z,8.60
2023-05-14T01:00:43.714Z,7.20
2023-05-14T01:03:17.221Z,7.65
2023-05-14T01:06:00.886Z,7.72
2023-05-14T01:08:41.679Z,7.03
2023-05-14T01:11:23.722Z,8.10
2023-05-14T01:14:04.593Z,7.28
2023-05-14T01:16:40.497Z,7.22
2023-05-14T01:19:28.402Z,8.25
2023-05-14T01:22:02.635Z,7.63
2023-05-14T01:24:35.968Z,6.95
2023-05-14T01:27:18.419Z,7.72
2023-05-14T01:29:57.226Z,7.70
2023-05-14T01:32:32.637Z,7.03
2023-05-14T01:35:07.460Z,6.75
2023-05-14T01:40:17.554Z,12.13
2023-05-14T01:42:52.102Z,7.75
2023-05-14T01:45:25.343Z,7.57
2023-05-14T01:47:58.827Z,7.80
2023-05-14T01:50:31.984Z,8.77
2023-05-14T01:53:06.440Z,8.82
2023-05-14T01:55:39.668Z,8.60
2023-05-14T01:58:12.601Z,7.85
2023-05-14T02:00:45.526Z,8.65
2023-05-14T02:03:18.375Z,8.60
2023-05-14T02:05:51.285Z,9.02
2023-05-14T02:08:25.568Z,8.57
2023-05-14T02:10:58.415Z,7.75
2023-05-14T02:13:33.382Z,7.78
2023-05-14T02:16:07.116Z,7.43
2023-05-14T02:18:41.729Z,8.40
2023-05-14T02:21:14.595Z,9.88
2023-05-14T02:23:49.447Z,7.30
2023-05-14T02:26:22.382Z,9.10
2023-05-14T02:28:56.380Z,10.13
2023-05-14T02:31:29.890Z,9.07
2023-05-14T02:34:03.803Z,9.15
2023-05-14T02:36:36.782Z,8.60
2023-05-14T02:39:11.266Z,10.65
2023-05-14T02:41:44.173Z,8.68
2023-05-14T02:44:16.957Z,9.73
2023-05-14T02:46:50.086Z,12.85
2023-05-14T02:49:22.894Z,8.95
2023-05-14T02:51:55.735Z,9.35
2023-05-14T02:54:29.938Z,9.25
2023-05-14T02:57:02.841Z,8.82
2023-05-14T02:59:36.140Z,9.55
2023-05-14T03:02:09.487Z,10.25
2023-05-14T03:04:42.763Z,11.10
2023-05-14T03:07:15.553Z,9.02
2023-05-14T03:09:49.813Z,8.80
2023-05-14T03:12:22.701Z,10.27
2023-05-14T03:14:55.536Z,9.52
2023-05-14T03:17:28.365Z,9.80
2023-05-14T03:20:01.445Z,11.32
2023-05-14T03:22:34.294Z,9.88
2023-05-14T03:25:09.349Z,8.63
2023-05-14T03:27:42.587Z,10.55
2023-05-14T03:30:15.701Z,9.40
2023-05-14T03:32:48.786Z,9.70
2023-05-14T03:35:21.703Z,10.25
2023-05-14T03:37:54.545Z,8.73
2023-05-14T03:40:28.733Z,11.13
2023-05-14T03:43:01.523Z,8.13
2023-05-14T03:45:34.777Z,9.30
2023-05-14T03:48:07.960Z,9.07
2023-05-14T03:50:41.084Z,7.95
2023-05-14T03:53:13.920Z,7.60
2023-05-14T03:55:48.122Z,7.82
2023-05-14T03:58:22.749Z,8.65
2023-05-14T04:00:55.607Z,8.95
2023-05-14T04:03:28.769Z,9.80
2023-05-14T04:06:02.718Z,10.00
2023-05-14T04:08:35.537Z,11.00
2023-05-14T04:11:10.012Z,9.13
2023-05-14T04:13:42.846Z,7.95
2023-05-14T04:16:16.437Z,8.13
2023-05-14T04:18:49.278Z,10.05
2023-05-14T04:21:22.114Z,10.30
2023-05-14T04:23:54.989Z,11.20
2023-05-14T04:26:29.326Z,9.68
2023-05-14T04:29:03.382Z,10.65
2023-05-14T04:31:37.176Z,9.55
2023-05-14T04:34:10.158Z,9.23
2023-05-14T04:36:42.951Z,11.77
2023-05-14T04:39:15.798Z,8.55
2023-05-14T04:41:49.902Z,7.18
2023-05-14T04:44:22.786Z,8.10
2023-05-14T04:46:55.699Z,9.00
2023-05-14T04:49:29.029Z,9.48
2023-05-14T04:52:02.256Z,9.23
2023-05-14T04:54:35.153Z,10.55
2023-05-14T04:57:09.701Z,8.60
2023-05-14T04:59:42.702Z,9.13
2023-05-14T05:02:15.723Z,8.57
2023-05-14T05:04:48.526Z,10.55
2023-05-14T05:07:21.336Z,9.45
2023-05-14T05:09:56.574Z,9.90
2023-05-14T05:12:30.931Z,12.65
2023-05-14T05:15:03.746Z,10.63
2023-05-14T05:17:37.995Z,11.13
2023-05-14T05:20:11.692Z,10.95
2023-05-14T05:22:44.491Z,10.02
2023-05-14T05:25:17.397Z,11.40
2023-05-14T05:27:51.537Z,11.50
2023-05-14T05:30:24.903Z,11.57
2023-05-14T05:32:58.151Z,11.75
2023-05-14T05:35:31.181Z,12.85
2023-05-14T05:38:04.110Z,14.15
2023-05-14T05:40:36.896Z,13.20
2023-05-14T05:43:11.293Z,12.73
2023-05-14T05:45:44.238Z,13.20
2023-05-14T05:48:17.072Z,14.90
2023-05-14T05:50:51.443Z,13.88
2023-05-14T05:53:24.397Z,14.23
2023-05-14T05:55:57.235Z,13.93
2023-05-14T05:58:31.590Z,13.32
2023-05-14T06:01:04.419Z,14.35
2023-05-14T06:03:37.285Z,15.40
2023-05-14T06:06:10.053Z,13.80
2023-05-14T06:08:43.361Z,14.95
2023-05-14T06:11:16.848Z,14.85
2023-05-14T06:13:50.953Z,15.50
2023-05-14T06:16:23.852Z,12.40
2023-05-14T06:18:56.883Z,15.18
2023-05-14T06:21:29.668Z,15.77
2023-05-14T06:24:02.594Z,15.52
2023-05-14T06:26:35.807Z,14.32
2023-05-14T06:29:09.952Z,14.98
2023-05-14T06:31:42.719Z,13.63
2023-05-14T06:34:15.726Z,13.13
2023-05-14T06:36:48.634Z,13.00
2023-05-14T06:39:21.612Z,13.13
2023-05-14T06:41:54.398Z,12.48
2023-05-14T06:47:06.478Z,16.58
2023-05-14T06:49:39.939Z,13.20
2023-05-14T06:52:12.768Z,14.75
2023-05-14T06:54:45.568Z,14.48
2023-05-14T06:57:18.347Z,14.20
2023-05-14T06:59:53.594Z,15.88
2023-05-14T07:02:26.502Z,16.02
2023-05-14T07:04:59.292Z,16.83
2023-05-14T07:07:33.253Z,17.00
2023-05-14T07:10:08.050Z,19.80
2023-05-14T07:15:16.783Z,15.45
2023-05-14T07:17:50.121Z,15.73
2023-05-14T07:20:27.277Z,14.68
2023-05-14T07:23:00.679Z,14.70
2023-05-14T07:25:36.465Z,14.60
2023-05-14T07:28:09.336Z,14.57
2023-05-14T07:30:45.195Z,14.10
2023-05-14T07:33:18.144Z,14.50
2023-05-14T07:35:51.158Z,14.50
2023-05-14T07:38:24.003Z,14.57
2023-05-14T07:40:56.801Z,12.65
2023-05-14T07:43:29.582Z,13.30
2023-05-14T07:46:03.686Z,12.60
2023-05-14T07:48:36.489Z,13.07
2023-05-14T07:51:10.492Z,13.13
2023-05-14T07:53:43.406Z,12.35
2023-05-14T07:56:16.174Z,12.38
2023-05-14T07:58:49.278Z,12.63
2023-05-14T08:01:23.765Z,12.27
2023-05-14T08:03:56.644Z,12.45
2023-05-14T08:06:32.579Z,9.75
2023-05-14T08:09:05.924Z,9.35
2023-05-14T08:11:39.101Z,10.43
2023-05-14T08:14:11.997Z,8.85
2023-05-14T08:16:48.674Z,7.85
2023-05-14T08:19:21.625Z,7.57
2023-05-14T08:21:54.643Z,7.10
2023-05-14T08:24:27.493Z,6.38
2023-05-14T08:27:00.494Z,6.80
2023-05-14T08:29:33.327Z,6.45
2023-05-14T08:32:16.037Z,6.25
2023-05-14T08:34:55.853Z,4.85
2023-05-14T08:37:28.632Z,6.00
2023-05-14T08:40:01.524Z,6.30
2023-05-14T08:42:34.752Z,5.28
2023-05-14T08:45:14.732Z,4.97
2023-05-14T08:47:51.260Z,4.78
2023-05-14T08:50:25.265Z,7.18
2023-05-14T08:52:58.621Z,4.80
2023-05-14T08:55:35.374Z,3.58
2023-05-14T08:58:08.154Z,4.00
2023-05-14T09:00:41.269Z,4.65
2023-05-14T09:03:16.249Z,4.90
2023-05-14T09:05:50.174Z,3.22
2023-05-14T09:08:23.217Z,4.15
2023-05-14T09:10:56.032Z,3.72
2023-05-14T09:13:29.021Z,3.42
2023-05-14T09:16:02.499Z,3.40
2023-05-14T09:18:38.270Z,4.20
2023-05-14T09:21:11.125Z,6.82
2023-05-14T09:23:44.649Z,3.97
2023-05-14T09:26:18.511Z,3.17
2023-05-14T09:28:56.797Z,14.00
2023-05-14T09:31:32.431Z,3.50
2023-05-14T09:34:07.401Z,3.35
2023-05-14T09:36:43.817Z,5.68
2023-05-14T09:39:17.448Z,3.20
2023-05-14T09:41:51.637Z,4.70
2023-05-14T09:44:25.480Z,4.45
2023-05-14T09:46:58.558Z,3.38
2023-05-14T09:49:33.031Z,4.03
2023-05-14T09:52:08.270Z,3.05
2023-05-14T09:54:41.699Z,5.75
2023-05-14T09:57:14.761Z,4.27
2023-05-14T09:59:48.356Z,2.40
2023-05-14T10:02:25.296Z,2.80
2023-05-14T10:05:03.475Z,3.10
2023-05-14T10:07:41.510Z,2.00
2023-05-14T10:10:17.363Z,2.65
2023-05-14T10:12:54.391Z,2.03
2023-05-14T10:15:34.524Z,5.30
2023-05-14T10:18:11.648Z,1.88
2023-05-14T10:20:49.432Z,1.92
2023-05-14T10:23:22.406Z,2.88
2023-05-14T10:25:55.430Z,4.88
2023-05-14T10:28:28.821Z,2.10
2023-05-14T10:31:01.802Z,4.20
2023-05-14T10:33:49.140Z,3.17
2023-05-14T10:36:23.374Z,1.95
2023-05-14T10:41:29.986Z,1.75
2023-05-14T10:44:09.799Z,2.42
2023-05-14T10:46:43.446Z,3.72
2023-05-14T10:49:28.818Z,1.80
2023-05-14T10:52:11.845Z,2.47
2023-05-14T10:54:49.616Z,1.88
2023-05-14T10:57:24.926Z,2.63
2023-05-14T10:59:59.153Z,2.00
2023-05-14T11:02:33.881Z,5.05
2023-05-14T11:05:10.488Z,3.80
2023-05-14T11:07:46.065Z,2.33
2023-05-14T11:10:21.314Z,2.75
2023-05-14T11:12:54.190Z,4.30
2023-05-14T11:15:28.539Z,2.35
2023-05-14T11:18:01.668Z,1.70
2023-05-14T11:20:37.018Z,2.67
2023-05-14T11:23:11.298Z,2.38
2023-05-14T11:25:44.152Z,3.47
2023-05-14T11:28:17.104Z,3.88
2023-05-14T11:30:50.302Z,1.83
2023-05-14T11:33:23.425Z,3.67
2023-05-14T11:35:56.359Z,1.75
2023-05-14T11:38:30.516Z,1.92
2023-05-14T11:41:04.860Z,2.95
2023-05-14T11:43:37.845Z,3.05
2023-05-14T11:46:18.000Z,4.72
2023-05-14T11:48:51.010Z,4.03
2023-05-14T11:51:24.515Z,2.83
2023-05-14T11:53:59.006Z,3.80
2023-05-14T11:56:31.818Z,2.40
2023-05-14T11:59:04.615Z,1.40
2023-05-14T12:01:37.906Z,1.95
2023-05-14T12:04:10.880Z,2.72
2023-05-14T12:06:43.845Z,1.45
2023-05-14T12:09:19.056Z,3.47
2023-05-14T12:11:52.770Z,3.55
2023-05-14T12:16:58.238Z,2.00
2023-05-14T12:19:31.445Z,4.55
2023-05-14T12:22:04.297Z,3.08
2023-05-14T12:24:39.116Z,3.63
2023-05-14T12:27:11.915Z,4.90
2023-05-14T12:29:44.747Z,2.03
2023-05-14T12:32:18.432Z,1.67
2023-05-14T12:34:51.318Z,2.70
2023-05-14T12:37:24.156Z,2.67
2023-05-14T12:39:58.316Z,2.53
2023-05-14T12:42:31.169Z,3.10
2023-05-14T12:45:07.569Z,3.17
2023-05-14T12:47:40.468Z,2.90
2023-05-14T12:50:16.296Z,4.40
2023-05-14T12:52:49.069Z,2.95
2023-05-14T12:55:23.363Z,3.00
2023-05-14T12:57:56.594Z,1.40
2023-05-14T13:00:29.469Z,2.40
2023-05-14T13:03:02.274Z,2.83
2023-05-14T13:05:35.092Z,2.57
2023-05-14T13:08:07.836Z,3.40
2023-05-14T13:10:44.198Z,4.13
2023-05-14T13:13:17.107Z,3.20
2023-05-14T13:15:50.148Z,1.67
2023-05-14T13:18:22.999Z,1.35
2023-05-14T13:20:55.961Z,2.80
2023-05-14T13:23:29.101Z,3.30
2023-05-14T13:26:03.680Z,2.00
2023-05-14T13:28:36.889Z,1.80
2023-05-14T13:31:10.942Z,2.33
2023-05-14T13:33:45.282Z,2.10
2023-05-14T13:36:18.138Z,1.38
2023-05-14T13:38:51.043Z,1.00
2023-05-14T13:41:27.209Z,1.57
2023-05-14T13:44:00.043Z,3.33
2023-05-14T13:46:32.986Z,2.27
2023-05-14T13:49:07.737Z,1.63
2023-05-14T13:51:40.843Z,2.10
2023-05-14T13:54:13.668Z,2.03
2023-05-14T13:56:48.079Z,1.42
2023-05-14T13:59:22.145Z,1.80
2023-05-14T14:01:55.258Z,1.40
2023-05-14T14:04:29.069Z,1.27
2023-05-14T14:07:02.135Z,1.27
2023-05-14T14:09:36.855Z,1.13
2023-05-14T14:12:11.666Z,1.63
2023-05-14T14:14:44.729Z,2.17
2023-05-14T14:17:17.541Z,2.17
2023-05-14T14:19:50.367Z,1.63
2023-05-14T14:22:26.157Z,4.60
2023-05-14T14:25:01.427Z,1.60
2023-05-14T14:27:38.411Z,1.13
2023-05-14T14:30:15.725Z,2.40
2023-05-14T14:32:49.680Z,2.03
2023-05-14T14:35:23.074Z,1.92
2023-05-14T14:37:56.167Z,2.15
2023-05-14T14:40:29.673Z,1.20
2023-05-14T14:43:03.922Z,2.05
2023-05-14T14:45:36.913Z,1.52
2023-05-14T14:48:31.325Z,1.92
2023-05-14T14:51:05.495Z,1.75
2023-05-14T14:53:40.254Z,2.78
2023-05-14T14:56:13.223Z,1.83
2023-05-14T14:58:47.445Z,2.05
2023-05-14T15:01:21.226Z,3.80
2023-05-14T15:03:54.258Z,2.33
2023-05-14T15:06:27.794Z,3.15
2023-05-14T15:09:00.640Z,2.30
2023-05-14T15:11:34.990Z,1.73
2023-05-14T15:14:10.270Z,1.63
2023-05-14T15:16:43.237Z,2.83
2023-05-14T15:19:16.190Z,2.13
2023-05-14T15:21:49.620Z,1.23
2023-05-14T15:24:23.932Z,4.20
2023-05-14T15:26:56.767Z,3.67
2023-05-14T15:29:31.079Z,2.60
2023-05-14T15:32:04.354Z,2.35
2023-05-14T15:34:37.334Z,3.08
2023-05-14T15:37:10.144Z,4.95
2023-05-14T15:39:42.971Z,1.65
2023-05-14T15:42:16.218Z,2.73
2023-05-14T15:44:50.424Z,1.95
2023-05-14T15:47:23.381Z,2.35
2023-05-14T15:49:56.232Z,2.43
2023-05-14T15:52:29.614Z,2.27
2023-05-14T15:55:02.659Z,2.72
2023-05-14T15:57:35.937Z,6.85
2023-05-14T16:00:11.670Z,2.80
2023-05-14T16:02:44.881Z,3.75
2023-05-14T16:05:17.902Z,2.08
2023-05-14T16:07:50.962Z,1.83
2023-05-14T16:10:24.147Z,1.85
2023-05-14T16:12:57.160Z,3.10
2023-05-14T16:15:31.408Z,1.83
2023-05-14T16:18:04.437Z,4.63
2023-05-14T16:20:37.473Z,3.90
2023-05-14T16:23:10.607Z,1.80
2023-05-14T16:25:43.465Z,2.00
2023-05-14T16:28:16.420Z,2.07
2023-05-14T16:30:50.797Z,1.90
2023-05-14T16:33:23.717Z,1.70
2023-05-14T16:35:56.534Z,3.22
2023-05-14T16:38:29.538Z,1.77
2023-05-14T16:41:02.362Z,2.53
2023-05-14T16:43:35.168Z,2.20
2023-05-14T16:46:09.590Z,1.65
2023-05-14T16:48:44.058Z,2.80
2023-05-14T16:51:18.073Z,2.47
2023-05-14T16:53:52.052Z,2.38
2023-05-14T16:56:26.397Z,1.52
2023-05-14T16:58:59.166Z,1.95
2023-05-14T17:01:33.402Z,1.20
2023-05-14T17:04:06.230Z,4.93
2023-05-14T17:06:39.235Z,2.95
2023-05-14T17:09:12.096Z,4.00
2023-05-14T17:11:44.980Z,2.08
2023-05-14T17:14:18.329Z,2.35
2023-05-14T17:16:52.552Z,3.03
2023-05-14T17:19:26.146Z,3.38
2023-05-14T17:21:59.058Z,3.20
2023-05-14T17:24:31.905Z,1.92
2023-05-14T17:27:05.256Z,2.65
2023-05-14T17:29:38.171Z,2.70
2023-05-14T17:32:12.410Z,2.90
2023-05-14T17:34:45.356Z,4.10
2023-05-14T17:37:18.381Z,2.15
2023-05-14T17:39:51.286Z,3.63
2023-05-14T17:42:24.119Z,3.65
2023-05-14T17:44:56.900Z,3.45
2023-05-14T17:47:31.170Z,3.67
2023-05-14T17:50:04.356Z,5.05
2023-05-14T17:52:37.728Z,2.00
2023-05-14T17:55:10.974Z,3.13
2023-05-14T17:57:44.321Z,2.70
2023-05-14T18:00:17.919Z,2.05
2023-05-14T18:02:52.471Z,1.88
2023-05-14T18:05:26.456Z,2.65
2023-05-14T18:07:59.761Z,2.58
2023-05-14T18:10:32.565Z,1.80
2023-05-14T18:13:05.416Z,4.10
2023-05-14T18:15:38.764Z,2.15
2023-05-14T18:18:13.423Z,3.77
2023-05-14T18:20:46.238Z,2.47
2023-05-14T18:23:19.051Z,2.10
2023-05-14T18:25:51.905Z,4.03
2023-05-14T18:28:24.765Z,2.45
2023-05-14T18:30:57.620Z,2.50
2023-05-14T18:33:32.397Z,1.95
2023-05-14T18:36:05.782Z,1.98
2023-05-14T18:38:38.592Z,2.07
2023-05-14T18:41:11.424Z,2.33
2023-05-14T18:43:44.508Z,2.22
2023-05-14T18:46:18.002Z,1.52
2023-05-14T18:48:52.353Z,8.07
2023-05-14T18:51:25.372Z,2.15
2023-05-14T18:53:58.299Z,2.30
2023-05-14T18:56:31.214Z,2.33
2023-05-14T18:59:04.286Z,3.17
2023-05-14T19:01:37.247Z,1.92
2023-05-14T19:04:11.793Z,4.40
2023-05-14T19:06:44.865Z,1.73
2023-05-14T19:09:20.943Z,2.65
2023-05-14T19:11:53.802Z,2.40
2023-05-14T19:14:26.611Z,2.03
2023-05-14T19:16:59.771Z,3.00
2023-05-14T19:19:33.931Z,1.75
2023-05-14T19:22:06.909Z,2.53
2023-05-14T19:24:40.061Z,2.05
2023-05-14T19:27:16.158Z,3.35
2023-05-14T19:29:49.155Z,4.47
2023-05-14T19:32:22.042Z,3.60
2023-05-14T19:34:56.238Z,3.90
2023-05-14T19:37:29.463Z,4.55
2023-05-14T19:40:02.493Z,2.22
2023-05-14T19:42:35.630Z,4.32
2023-05-14T19:45:10.116Z,4.75
2023-05-14T19:47:43.111Z,4.63
2023-05-14T19:50:17.511Z,2.00
2023-05-14T19:52:50.884Z,3.50
2023-05-14T19:55:23.979Z,4.50
2023-05-14T19:57:57.655Z,4.00
2023-05-14T20:00:30.576Z,3.97
2023-05-14T20:03:04.138Z,3.50
2023-05-14T20:05:40.890Z,2.53
2023-05-14T20:08:14.238Z,3.47
2023-05-14T20:10:47.370Z,3.58
2023-05-14T20:13:20.540Z,4.90
2023-05-14T20:15:55.282Z,3.63
2023-05-14T20:18:28.333Z,4.22
2023-05-14T20:21:02.810Z,4.15
2023-05-14T20:23:36.200Z,3.92
2023-05-14T20:26:09.148Z,3.83
2023-05-14T20:28:43.298Z,3.60
2023-05-14T20:31:16.405Z,5.03
2023-05-14T20:33:49.395Z,4.05
2023-05-14T20:36:24.292Z,3.45
2023-05-14T20:38:57.636Z,3.17
2023-05-14T20:41:30.591Z,6.32
2023-05-14T20:44:03.505Z,3.97
2023-05-14T20:46:36.419Z,4.22
2023-05-14T20:49:09.240Z,3.65
2023-05-14T20:51:43.373Z,3.72
2023-05-14T20:54:16.389Z,4.28
2023-05-14T20:56:49.251Z,5.25
2023-05-14T20:59:22.080Z,3.95
2023-05-14T21:01:55.035Z,2.85
2023-05-14T21:04:27.969Z,2.65
2023-05-14T21:07:02.761Z,3.42
2023-05-14T21:09:35.640Z,3.28
2023-05-14T21:12:09.201Z,4.32
2023-05-14T21:14:42.622Z,3.60
2023-05-14T21:17:15.544Z,3.30
2023-05-14T21:19:48.379Z,5.78
2023-05-14T21:22:23.507Z,4.53
2023-05-14T21:24:56.514Z,2.97
2023-05-14T21:27:29.783Z,3.92
2023-05-14T21:30:02.723Z,4.20
2023-05-14T21:32:35.812Z,2.90
2023-05-14T21:35:09.558Z,4.85
2023-05-14T21:37:43.766Z,3.50
2023-05-14T21:40:16.554Z,3.20
2023-05-14T21:42:49.350Z,2.85
2023-05-14T21:45:23.572Z,7.75
2023-05-14T21:50:29.448Z,4.72
2023-05-14T21:53:03.700Z,3.78
2023-05-14T21:55:36.731Z,4.43
2023-05-14T21:58:09.661Z,3.75
2023-05-14T22:00:42.467Z,3.22
2023-05-14T22:03:15.523Z,5.75
2023-05-14T22:05:49.239Z,3.00
2023-05-14T22:08:23.530Z,7.03
2023-05-14T22:10:56.820Z,4.15
2023-05-14T22:13:29.645Z,4.10
2023-05-14T22:16:12.177Z,3.45
2023-05-14T22:18:47.066Z,3.78
2023-05-14T22:21:20.043Z,5.35
2023-05-14T22:23:54.218Z,5.13
2023-05-14T22:26:27.046Z,4.13
2023-05-14T22:28:59.878Z,4.25
2023-05-14T22:31:32.656Z,5.93
2023-05-14T22:34:05.554Z,3.60
2023-05-14T22:36:38.431Z,4.70
2023-05-14T22:39:13.484Z,3.70
2023-05-14T22:41:46.507Z,5.20
2023-05-14T22:44:19.325Z,3.65
2023-05-14T22:46:52.176Z,4.57
2023-05-14T22:49:25.143Z,4.20
2023-05-14T22:51:57.908Z,5.15
2023-05-14T22:54:32.529Z,4.70
2023-05-14T22:57:06.673Z,6.57
2023-05-14T22:59:39.792Z,4.65
2023-05-14T23:02:12.716Z,4.40
2023-05-14T23:04:45.565Z,6.10
2023-05-14T23:07:18.457Z,5.75
2023-05-14T23:09:52.633Z,5.28
2023-05-14T23:12:25.433Z,4.72
2023-05-14T23:14:59.089Z,4.80
2023-05-14T23:17:32.060Z,5.03
2023-05-14T23:20:06.127Z,7.13
2023-05-14T23:22:39.640Z,5.03
2023-05-14T23:25:13.888Z,4.70
2023-05-14T23:27:46.805Z,4.88
2023-05-14T23:30:19.610Z,4.47
2023-05-14T23:32:52.475Z,5.97
2023-05-14T23:35:25.769Z,6.07
2023-05-14T23:37:59.031Z,5.43
2023-05-14T23:40:34.138Z,4.93
2023-05-14T23:43:07.015Z,5.38
2023-05-14T23:45:39.889Z,6.28
2023-05-14T23:48:13.042Z,6.30
2023-05-14T23:50:45.879Z,5.68
2023-05-14T23:53:18.986Z,6.75
2023-05-14T23:55:53.200Z,5.97
2023-05-14T23:58:26.332Z,7.38
